createdAt,value
2023-02-15T00:01:37.522Z,14.98
2023-02-15T00:04:04.932Z,14.90
2023-02-15T00:06:31.808Z,15.07
2023-02-15T00:08:58.422Z,14.48
2023-02-15T00:11:43.212Z,14.00
2023-02-15T00:14:11.078Z,14.95
2023-02-15T00:16:38.506Z,13.93
2023-02-15T00:19:05.717Z,14.35
2023-02-15T00:21:33.713Z,13.90
2023-02-15T00:24:01.863Z,14.82
2023-02-15T00:26:28.619Z,13.70
2023-02-15T00:28:56.079Z,14.93
2023-02-15T00:31:22.811Z,15.23
2023-02-15T00:33:49.258Z,13.88
2023-02-15T00:36:15.708Z,13.52
2023-02-15T00:38:42.120Z,14.40
2023-02-15T00:41:09.804Z,14.63
2023-02-15T00:43:37.469Z,13.70
2023-02-15T00:46:05.768Z,14.00
2023-02-15T00:48:32.174Z,15.48
2023-02-15T00:51:00.563Z,15.82
2023-02-15T00:55:54.848Z,13.77
2023-02-15T00:58:21.489Z,14.45
2023-02-15T01:00:48.656Z,13.70
2023-02-15T01:03:17.450Z,15.18
2023-02-15T01:05:43.868Z,13.25
2023-02-15T01:08:10.596Z,13.32
2023-02-15T01:10:37.552Z,13.35
2023-02-15T01:13:05.858Z,13.60
2023-02-15T01:15:34.706Z,14.07
2023-02-15T01:18:01.040Z,12.77
2023-02-15T01:20:29.327Z,14.00
2023-02-15T01:22:57.510Z,14.48
2023-02-15T01:25:26.103Z,13.15
2023-02-15T01:27:52.551Z,13.15
2023-02-15T01:30:19.323Z,13.35
2023-02-15T01:32:45.835Z,12.55
2023-02-15T01:35:12.760Z,12.88
2023-02-15T01:37:39.171Z,12.55
2023-02-15T01:40:08.398Z,11.95
2023-02-15T01:42:34.939Z,11.88
2023-02-15T01:45:04.533Z,12.65
2023-02-15T01:47:35.457Z,12.15
2023-02-15T01:50:19.622Z,11.88
2023-02-15T01:52:56.008Z,11.68
2023-02-15T01:55:26.100Z,12.02
2023-02-15T01:57:53.045Z,11.60
2023-02-15T02:00:20.089Z,12.15
2023-02-15T02:02:49.169Z,12.10
2023-02-15T02:05:15.641Z,11.45
2023-02-15T02:07:47.521Z,13.15
2023-02-15T02:10:18.142Z,12.15
2023-02-15T02:12:46.728Z,10.50
2023-02-15T02:15:14.197Z,12.00
2023-02-15T02:18:00.868Z,12.82
2023-02-15T02:21:04.791Z,11.95
2023-02-15T02:23:54.691Z,11.55
2023-02-15T02:26:29.517Z,10.77
2023-02-15T02:29:23.201Z,12.23
2023-02-15T02:32:07.823Z,10.73
2023-02-15T02:34:49.797Z,11.20
2023-02-15T02:37:35.420Z,10.77
2023-02-15T02:40:11.997Z,10.77
2023-02-15T02:42:42.529Z,10.32
2023-02-15T02:45:26.999Z,10.77
2023-02-15T02:47:59.982Z,12.15
2023-02-15T02:50:29.597Z,11.57
2023-02-15T02:52:57.848Z,11.32
2023-02-15T02:55:31.682Z,11.43
2023-02-15T02:58:20.422Z,11.15
2023-02-15T03:00:53.110Z,11.07
2023-02-15T03:03:30.599Z,11.18
2023-02-15T03:06:01.868Z,10.52
2023-02-15T03:08:36.751Z,11.10
2023-02-15T03:11:05.148Z,11.63
2023-02-15T03:13:32.912Z,10.77
2023-02-15T03:16:20.468Z,10.63
2023-02-15T03:18:58.088Z,10.93
2023-02-15T03:21:50.584Z,10.10
2023-02-15T03:24:22.967Z,10.88
2023-02-15T03:26:52.719Z,11.20
2023-02-15T03:29:22.791Z,10.77
2023-02-15T03:31:54.990Z,10.13
2023-02-15T03:34:21.728Z,11.07
2023-02-15T03:37:25.614Z,9.82
2023-02-15T03:40:21.257Z,11.50
2023-02-15T03:42:53.336Z,11.10
2023-02-15T03:45:27.426Z,10.65
2023-02-15T03:47:57.231Z,10.98
2023-02-15T03:50:55.621Z,10.45
2023-02-15T03:53:24.302Z,10.80
2023-02-15T03:55:55.435Z,11.00
2023-02-15T03:58:40.485Z,11.15
2023-02-15T04:01:53.360Z,10.95
2023-02-15T04:04:25.505Z,9.30
2023-02-15T04:06:51.967Z,11.27
2023-02-15T04:09:36.804Z,11.60
2023-02-15T04:12:03.368Z,10.77
2023-02-15T04:14:48.522Z,11.48
2023-02-15T04:17:14.958Z,11.27
2023-02-15T04:19:59.917Z,9.90
2023-02-15T04:22:44.607Z,9.88
2023-02-15T04:25:13.762Z,10.50
2023-02-15T04:27:43.505Z,10.68
2023-02-15T04:30:12.178Z,11.07
2023-02-15T04:32:39.420Z,11.18
2023-02-15T04:35:07.501Z,11.60
2023-02-15T04:37:34.832Z,10.98
2023-02-15T04:40:01.229Z,11.20
2023-02-15T04:42:27.727Z,10.80
2023-02-15T04:44:55.316Z,11.77
2023-02-15T04:47:21.920Z,11.52
2023-02-15T04:49:48.369Z,12.00
2023-02-15T04:52:14.904Z,12.23
2023-02-15T04:54:41.552Z,11.18
2023-02-15T04:57:07.886Z,11.48
2023-02-15T04:59:34.302Z,11.70
2023-02-15T05:02:00.742Z,11.70
2023-02-15T05:04:27.230Z,11.43
2023-02-15T05:06:54.016Z,12.25
2023-02-15T05:09:20.441Z,11.05
2023-02-15T05:11:46.888Z,11.68
2023-02-15T05:14:13.446Z,10.88
2023-02-15T05:16:40.129Z,12.15
2023-02-15T05:19:06.690Z,11.60
2023-02-15T05:21:33.820Z,13.30
2023-02-15T05:24:00.279Z,13.38
2023-02-15T05:26:45.360Z,12.90
2023-02-15T05:29:11.924Z,14.07
2023-02-15T05:31:38.837Z,13.00
2023-02-15T05:34:05.396Z,12.30
2023-02-15T05:36:31.723Z,12.05
2023-02-15T05:38:58.065Z,12.10
2023-02-15T05:41:25.100Z,11.57
2023-02-15T05:43:51.535Z,11.90
2023-02-15T05:46:17.908Z,12.15
2023-02-15T05:48:44.297Z,11.48
2023-02-15T05:51:16.912Z,10.68
2023-02-15T05:53:43.268Z,11.32
2023-02-15T05:56:13.157Z,11.45
2023-02-15T05:58:41.439Z,11.90
2023-02-15T06:01:19.365Z,11.63
2023-02-15T06:03:46.822Z,11.63
2023-02-15T06:06:13.208Z,11.00
2023-02-15T06:08:39.744Z,12.25
2023-02-15T06:11:06.364Z,11.65
2023-02-15T06:13:33.226Z,11.57
2023-02-15T06:16:00.628Z,11.15
2023-02-15T06:18:27.514Z,11.52
2023-02-15T06:20:53.875Z,11.75
2023-02-15T06:23:20.403Z,12.75
2023-02-15T06:25:47.060Z,13.15
2023-02-15T06:28:14.003Z,14.95
2023-02-15T06:30:40.564Z,13.48
2023-02-15T06:33:07.040Z,12.32
2023-02-15T06:35:33.611Z,11.90
2023-02-15T06:37:59.975Z,11.15
2023-02-15T06:40:26.337Z,11.95
2023-02-15T06:42:52.765Z,11.98
2023-02-15T06:45:19.210Z,10.48
2023-02-15T06:47:45.682Z,10.57
2023-02-15T06:50:13.227Z,9.98
2023-02-15T06:52:39.560Z,10.52
2023-02-15T06:55:06.581Z,11.20
2023-02-15T06:57:34.053Z,10.60
2023-02-15T07:00:00.455Z,9.75
2023-02-15T07:02:26.837Z,10.70
2023-02-15T07:04:53.238Z,10.32
2023-02-15T07:07:19.899Z,10.25
2023-02-15T07:09:46.228Z,10.63
2023-02-15T07:12:30.992Z,12.45
2023-02-15T07:14:59.061Z,10.57
2023-02-15T07:17:36.905Z,9.93
2023-02-15T07:20:05.960Z,9.40
2023-02-15T07:22:34.832Z,10.43
2023-02-15T07:25:01.271Z,10.32
2023-02-15T07:27:27.700Z,9.95
2023-02-15T07:29:54.132Z,10.57
2023-02-15T07:32:20.561Z,10.52
2023-02-15T07:34:46.953Z,10.68
2023-02-15T07:37:13.328Z,10.93
2023-02-15T07:39:39.696Z,11.20
2023-02-15T07:42:06.189Z,10.95
2023-02-15T07:44:32.533Z,11.35
2023-02-15T07:46:58.840Z,10.38
2023-02-15T07:49:25.328Z,10.77
2023-02-15T07:51:51.732Z,11.57
2023-02-15T07:54:18.266Z,10.90
2023-02-15T07:56:44.700Z,11.30
2023-02-15T07:59:11.131Z,11.55
2023-02-15T08:01:39.004Z,11.57
2023-02-15T08:04:07.097Z,10.32
2023-02-15T08:06:36.140Z,10.75
2023-02-15T08:09:08.363Z,10.65
2023-02-15T08:11:40.804Z,11.15
2023-02-15T08:14:17.868Z,10.65
2023-02-15T08:16:46.832Z,11.27
2023-02-15T08:19:24.923Z,11.32
2023-02-15T08:21:52.877Z,10.02
2023-02-15T08:24:21.845Z,10.43
2023-02-15T08:26:49.563Z,11.10
2023-02-15T08:29:18.129Z,11.05
2023-02-15T08:31:45.018Z,9.90
2023-02-15T08:34:14.427Z,10.43
2023-02-15T08:36:41.131Z,11.10
2023-02-15T08:39:08.156Z,11.45
2023-02-15T08:41:36.875Z,9.85
2023-02-15T08:44:08.908Z,10.80
2023-02-15T08:46:38.591Z,10.85
2023-02-15T08:49:05.107Z,11.13
2023-02-15T08:51:34.222Z,11.50
2023-02-15T08:54:05.302Z,11.35
2023-02-15T08:56:38.087Z,11.60
2023-02-15T08:59:06.055Z,11.27
2023-02-15T09:01:34.224Z,10.90
2023-02-15T09:04:03.231Z,10.77
2023-02-15T09:06:29.884Z,10.85
2023-02-15T09:08:57.301Z,11.45
2023-02-15T09:11:26.479Z,10.98
2023-02-15T09:13:58.476Z,11.07
2023-02-15T09:16:27.639Z,10.95
2023-02-15T09:18:55.106Z,11.75
2023-02-15T09:21:24.866Z,11.38
2023-02-15T09:23:55.801Z,11.05
2023-02-15T09:26:24.190Z,11.60
2023-02-15T09:28:56.422Z,11.45
2023-02-15T09:31:26.654Z,11.60
2023-02-15T09:33:53.397Z,10.95
2023-02-15T09:36:22.492Z,11.20
2023-02-15T09:38:55.894Z,10.85
2023-02-15T09:41:50.581Z,11.48
2023-02-15T09:44:50.946Z,11.43
2023-02-15T09:47:20.236Z,11.52
2023-02-15T09:50:14.123Z,11.63
2023-02-15T09:53:02.071Z,12.23
2023-02-15T09:55:34.538Z,11.63
2023-02-15T09:58:15.930Z,11.98
2023-02-15T10:01:22.339Z,13.50
2023-02-15T10:04:28.132Z,12.40
2023-02-15T10:07:22.521Z,12.57
2023-02-15T10:10:27.355Z,13.32
2023-02-15T10:13:10.910Z,13.48
2023-02-15T10:15:54.291Z,12.68
2023-02-15T10:18:35.932Z,15.02
2023-02-15T10:21:25.721Z,13.88
2023-02-15T10:24:12.122Z,14.82
2023-02-15T10:26:47.650Z,13.55
2023-02-15T10:29:29.334Z,15.00
2023-02-15T10:32:06.320Z,15.63
2023-02-15T10:34:40.265Z,15.10
2023-02-15T10:37:21.917Z,17.02
2023-02-15T10:40:06.691Z,16.42
2023-02-15T10:43:05.290Z,17.00
2023-02-15T10:46:09.078Z,16.80
2023-02-15T10:48:56.639Z,16.98
2023-02-15T10:51:35.256Z,16.50
2023-02-15T10:54:20.616Z,18.70
2023-02-15T10:57:08.876Z,17.95
2023-02-15T10:59:54.289Z,16.98
2023-02-15T11:03:02.348Z,18.80
2023-02-15T11:06:13.139Z,16.77
2023-02-15T11:08:48.892Z,18.17
2023-02-15T11:11:25.679Z,18.88
2023-02-15T11:13:57.626Z,18.88
2023-02-15T11:16:29.873Z,18.23
2023-02-15T11:19:06.689Z,19.23
2023-02-15T11:21:39.883Z,19.20
2023-02-15T11:24:12.247Z,17.92
2023-02-15T11:26:43.624Z,18.60
2023-02-15T11:29:27.928Z,19.67
2023-02-15T11:31:58.592Z,19.83
2023-02-15T11:34:37.428Z,19.70
2023-02-15T11:37:14.576Z,19.42
2023-02-15T11:39:41.129Z,19.23
2023-02-15T11:42:17.686Z,18.13
2023-02-15T11:45:02.254Z,18.33
2023-02-15T11:47:29.152Z,18.98
2023-02-15T11:49:55.516Z,18.65
2023-02-15T11:52:21.958Z,19.10
2023-02-15T11:54:51.377Z,19.58
2023-02-15T11:57:43.357Z,19.25
2023-02-15T12:00:38.850Z,18.75
2023-02-15T12:03:29.171Z,18.13
2023-02-15T12:06:04.436Z,17.90
2023-02-15T12:08:43.160Z,18.63
2023-02-15T12:11:13.461Z,18.58
2023-02-15T12:13:56.575Z,19.98
2023-02-15T12:16:23.525Z,19.77
2023-02-15T12:18:53.372Z,18.77
2023-02-15T12:21:33.013Z,19.67
2023-02-15T12:24:04.909Z,18.83
2023-02-15T12:26:35.010Z,17.98
2023-02-15T12:29:18.862Z,19.35
2023-02-15T12:31:47.298Z,19.52
2023-02-15T12:34:42.203Z,18.35
2023-02-15T12:37:18.824Z,19.50
2023-02-15T12:39:57.254Z,18.55
2023-02-15T12:42:25.295Z,18.02
2023-02-15T12:45:02.341Z,18.17
2023-02-15T12:47:31.505Z,18.20
2023-02-15T12:50:17.793Z,17.80
2023-02-15T12:52:48.490Z,19.80
2023-02-15T12:55:21.304Z,18.73
2023-02-15T12:57:48.122Z,18.08
2023-02-15T13:00:20.562Z,18.23
2023-02-15T13:03:01.217Z,18.23
2023-02-15T13:05:36.233Z,18.75
2023-02-15T13:08:11.204Z,19.80
2023-02-15T13:10:57.200Z,18.50
2023-02-15T13:13:27.805Z,18.45
2023-02-15T13:15:59.173Z,18.10
2023-02-15T13:18:32.825Z,19.70
2023-02-15T13:21:25.067Z,18.30
2023-02-15T13:24:07.193Z,18.45
2023-02-15T13:26:35.704Z,17.80
2023-02-15T13:29:22.362Z,18.63
2023-02-15T13:31:51.681Z,17.42
2023-02-15T13:34:32.317Z,19.13
2023-02-15T13:37:14.461Z,18.33
2023-02-15T13:39:52.583Z,19.85
2023-02-15T13:42:29.841Z,18.83
2023-02-15T13:45:17.880Z,18.63
2023-02-15T13:48:34.108Z,18.08
2023-02-15T13:51:31.034Z,17.48
2023-02-15T13:54:32.838Z,17.88
2023-02-15T13:58:04.133Z,17.63
2023-02-15T14:00:41.310Z,17.85
2023-02-15T14:03:22.676Z,18.65
2023-02-15T14:06:13.106Z,19.15
2023-02-15T14:09:01.279Z,19.23
2023-02-15T14:11:36.587Z,19.67
2023-02-15T14:14:21.632Z,18.95
2023-02-15T14:17:16.196Z,18.50
2023-02-15T14:19:51.100Z,18.95
2023-02-15T14:22:40.014Z,19.40
2023-02-15T14:25:29.508Z,18.88
2023-02-15T14:28:18.385Z,18.48
2023-02-15T14:30:49.348Z,19.02
2023-02-15T14:33:16.409Z,17.38
2023-02-15T14:35:44.643Z,18.35
2023-02-15T14:38:21.330Z,18.95
2023-02-15T14:41:08.108Z,17.15
2023-02-15T14:43:37.741Z,17.75
2023-02-15T14:46:10.648Z,18.85
2023-02-15T14:48:59.583Z,19.10
2023-02-15T14:51:41.199Z,17.52
2023-02-15T14:54:09.063Z,18.15
2023-02-15T14:56:36.226Z,18.35
2023-02-15T14:59:19.041Z,18.88
2023-02-15T15:01:58.264Z,17.25
2023-02-15T15:04:30.901Z,18.25
2023-02-15T15:07:08.635Z,18.75
2023-02-15T15:09:38.634Z,18.75
2023-02-15T15:12:16.063Z,18.30
2023-02-15T15:14:46.721Z,18.05
2023-02-15T15:17:33.406Z,18.17
2023-02-15T15:20:14.745Z,18.73
2023-02-15T15:22:44.719Z,19.30
2023-02-15T15:25:13.035Z,19.50
2023-02-15T15:27:55.024Z,18.80
2023-02-15T15:30:21.447Z,18.77
2023-02-15T15:32:57.634Z,17.75
2023-02-15T15:35:46.083Z,18.05
2023-02-15T15:38:18.422Z,16.63
2023-02-15T15:41:17.312Z,18.80
2023-02-15T15:43:52.749Z,17.38
2023-02-15T15:46:50.375Z,17.58
2023-02-15T15:49:22.048Z,17.67
2023-02-15T15:51:49.855Z,17.48
2023-02-15T15:54:22.453Z,17.73
2023-02-15T15:57:01.845Z,18.25
2023-02-15T15:59:35.368Z,17.13
2023-02-15T16:02:08.114Z,18.27
2023-02-15T16:04:35.671Z,18.13
2023-02-15T16:07:17.363Z,19.25
2023-02-15T16:09:55.915Z,18.20
2023-02-15T16:12:23.846Z,18.80
2023-02-15T16:14:52.633Z,17.70
2023-02-15T16:17:22.989Z,18.67
2023-02-15T16:19:51.246Z,18.65
2023-02-15T16:22:24.273Z,19.02
2023-02-15T16:25:12.482Z,19.48
2023-02-15T16:27:44.569Z,18.05
2023-02-15T16:30:31.875Z,19.02
2023-02-15T16:33:17.650Z,17.60
2023-02-15T16:35:58.527Z,19.83
2023-02-15T16:38:43.225Z,18.30
2023-02-15T16:41:13.778Z,18.20
2023-02-15T16:43:42.261Z,18.65
2023-02-15T16:46:16.711Z,19.88
2023-02-15T16:48:48.674Z,18.67
2023-02-15T16:51:42.761Z,20.75
2023-02-15T16:54:18.613Z,20.20
2023-02-15T16:59:44.312Z,18.02
2023-02-15T17:02:40.207Z,18.60
2023-02-15T17:05:10.614Z,19.45
2023-02-15T17:07:42.393Z,20.38
2023-02-15T17:10:31.818Z,22.35
2023-02-15T17:13:17.866Z,23.10
2023-02-15T17:16:05.843Z,25.30
2023-02-15T17:18:39.485Z,24.95
2023-02-15T17:21:18.319Z,23.40
2023-02-15T17:23:50.852Z,22.75
2023-02-15T17:26:32.914Z,23.23
2023-02-15T17:29:02.668Z,23.33
2023-02-15T17:31:33.359Z,22.70
2023-02-15T17:34:01.177Z,22.45
2023-02-15T17:36:30.234Z,22.98
2023-02-15T17:39:01.673Z,20.80
2023-02-15T17:41:34.998Z,20.00
2023-02-15T17:44:03.697Z,21.48
2023-02-15T17:46:35.478Z,20.73
2023-02-15T17:49:02.200Z,21.95
2023-02-15T17:51:28.760Z,23.20
2023-02-15T17:54:13.766Z,25.77
2023-02-15T17:56:40.190Z,22.95
2023-02-15T17:59:11.336Z,25.38
2023-02-15T18:02:04.208Z,26.88
2023-02-15T18:04:50.944Z,28.63
2023-02-15T18:07:37.654Z,24.58
2023-02-15T18:10:32.589Z,25.05
2023-02-15T18:12:59.066Z,32.53
2023-02-15T18:15:25.929Z,32.58
2023-02-15T18:17:52.529Z,32.20
2023-02-15T18:20:31.737Z,28.05
2023-02-15T18:22:58.165Z,27.13
2023-02-15T18:25:25.396Z,25.70
2023-02-15T18:27:54.941Z,25.55
2023-02-15T18:30:24.046Z,25.95
2023-02-15T18:32:53.067Z,24.05
2023-02-15T18:35:23.680Z,23.40
2023-02-15T18:37:52.176Z,23.35
2023-02-15T18:40:29.091Z,24.23
2023-02-15T18:42:56.968Z,23.60
2023-02-15T18:45:32.396Z,27.25
2023-02-15T18:47:59.180Z,27.73
2023-02-15T18:50:28.996Z,26.60
2023-02-15T18:52:55.426Z,26.05
2023-02-15T18:55:25.840Z,28.88
2023-02-15T18:57:54.717Z,29.60
2023-02-15T19:00:29.750Z,28.52
2023-02-15T19:02:56.943Z,27.50
2023-02-15T19:05:24.621Z,26.60
2023-02-15T19:07:51.581Z,27.10
2023-02-15T19:10:25.287Z,26.23
2023-02-15T19:12:52.929Z,26.17
2023-02-15T19:15:25.187Z,27.15
2023-02-15T19:17:52.342Z,27.45
2023-02-15T19:20:20.179Z,28.50
2023-02-15T19:22:51.697Z,28.42
2023-02-15T19:25:24.977Z,27.88
2023-02-15T19:27:53.557Z,25.23
2023-02-15T19:30:29.779Z,26.65
2023-02-15T19:32:57.841Z,28.23
2023-02-15T19:35:29.006Z,26.63
2023-02-15T19:38:01.718Z,27.90
2023-02-15T19:40:34.061Z,28.20
2023-02-15T19:43:03.677Z,27.92
2023-02-15T19:45:31.848Z,26.90
2023-02-15T19:48:01.297Z,26.02
2023-02-15T19:50:33.197Z,30.15
2023-02-15T19:53:01.703Z,27.08
2023-02-15T19:55:33.396Z,26.50
2023-02-15T19:58:01.246Z,26.00
2023-02-15T20:00:30.807Z,24.52
2023-02-15T20:02:59.196Z,24.55
2023-02-15T20:05:30.400Z,25.50
2023-02-15T20:07:58.388Z,27.52
2023-02-15T20:10:28.715Z,25.85
2023-02-15T20:12:55.762Z,26.60
2023-02-15T20:15:27.098Z,23.58
2023-02-15T20:17:54.303Z,25.10
2023-02-15T20:20:22.525Z,25.38
2023-02-15T20:22:51.654Z,26.58
2023-02-15T20:25:21.060Z,25.73
2023-02-15T20:27:48.012Z,26.15
2023-02-15T20:30:16.878Z,26.58
2023-02-15T20:32:43.551Z,24.52
2023-02-15T20:35:18.064Z,25.88
2023-02-15T20:37:54.618Z,23.42
2023-02-15T20:40:30.423Z,25.70
2023-02-15T20:45:28.611Z,22.83
2023-02-15T20:47:55.420Z,25.02
2023-02-15T20:50:24.808Z,28.67
2023-02-15T20:52:52.882Z,29.00
2023-02-15T20:55:22.088Z,26.88
2023-02-15T20:57:48.898Z,28.05
2023-02-15T21:00:19.128Z,26.10
2023-02-15T21:02:52.861Z,28.33
2023-02-15T21:05:25.283Z,29.92
2023-02-15T21:07:52.952Z,27.65
2023-02-15T21:10:24.620Z,26.55
2023-02-15T21:12:51.833Z,27.05
2023-02-15T21:15:34.347Z,26.48
2023-02-15T21:18:06.525Z,24.65
2023-02-15T21:20:35.026Z,25.20
2023-02-15T21:23:05.049Z,24.20
2023-02-15T21:25:36.798Z,26.95
2023-02-15T21:28:08.263Z,26.38
2023-02-15T21:30:34.770Z,28.00
2023-02-15T21:33:01.182Z,26.65
2023-02-15T21:35:28.658Z,26.58
2023-02-15T21:37:56.126Z,26.42
2023-02-15T21:40:29.851Z,25.45
2023-02-15T21:43:15.883Z,25.90
2023-02-15T21:46:01.298Z,28.98
2023-02-15T21:48:27.793Z,28.63
2023-02-15T21:51:13.536Z,27.58
2023-02-15T21:53:42.654Z,26.05
2023-02-15T21:56:13.282Z,26.60
2023-02-15T21:58:40.237Z,25.50
2023-02-15T22:01:21.216Z,23.67
2023-02-15T22:03:48.256Z,24.02
2023-02-15T22:06:17.214Z,23.77
2023-02-15T22:08:47.219Z,25.30
2023-02-15T22:11:17.858Z,24.48
2023-02-15T22:13:47.486Z,24.92
2023-02-15T22:16:21.645Z,23.98
2023-02-15T22:18:49.170Z,24.80
2023-02-15T22:21:22.025Z,24.80
2023-02-15T22:23:54.698Z,24.67
2023-02-15T22:26:30.040Z,23.45
2023-02-15T22:29:07.223Z,24.88
2023-02-15T22:31:39.214Z,23.77
2023-02-15T22:34:23.052Z,22.85
2023-02-15T22:37:04.889Z,21.13
2023-02-15T22:39:31.671Z,22.38
2023-02-15T22:42:02.901Z,22.73
2023-02-15T22:44:37.646Z,22.65
2023-02-15T22:47:05.600Z,23.95
2023-02-15T22:49:32.556Z,22.77
2023-02-15T22:52:01.700Z,23.33
2023-02-15T22:54:28.803Z,22.63
2023-02-15T22:56:58.673Z,23.77
2023-02-15T22:59:32.958Z,23.27
2023-02-15T23:02:01.112Z,23.67
2023-02-15T23:04:36.243Z,23.02
2023-02-15T23:07:23.270Z,23.20
2023-02-15T23:09:58.274Z,23.38
2023-02-15T23:12:55.272Z,29.05
2023-02-15T23:18:26.403Z,26.35
2023-02-15T23:21:02.250Z,23.08
2023-02-15T23:23:41.014Z,23.25
2023-02-15T23:26:29.536Z,22.25
2023-02-15T23:29:04.730Z,22.80
2023-02-15T23:31:36.822Z,21.95
2023-02-15T23:34:14.950Z,21.88
2023-02-15T23:36:45.244Z,21.48
2023-02-15T23:39:41.646Z,22.60
2023-02-15T23:42:24.525Z,20.38
2023-02-15T23:44:57.100Z,20.63
2023-02-15T23:47:47.684Z,20.50
2023-02-15T23:50:24.212Z,19.30
2023-02-15T23:52:52.796Z,20.65
2023-02-15T23:55:21.167Z,20.98
2023-02-15T23:57:48.416Z,19.25
